sensor_id;sensor_type;location;lat;lon;timestamp;temperature;humidity
64961;SHT31;51487;52.266;10.542;2023-04-06T00:00:32;2.73;72.42
64961;SHT31;51487;52.266;10.542;2023-04-06T00:02:58;2.71;72.01
64961;SHT31;51487;52.266;10.542;2023-04-06T00:05:23;2.76;71.61
64961;SHT31;51487;52.266;10.542;2023-04-06T00:07:49;2.79;71.31
64961;SHT31;51487;52.266;10.542;2023-04-06T00:10:16;2.66;73.20
64961;SHT31;51487;52.266;10.542;2023-04-06T00:12:41;2.56;72.43
64961;SHT31;51487;52.266;10.542;2023-04-06T00:15:07;2.55;72.16
64961;SHT31;51487;52.266;10.542;2023-04-06T00:17:33;2.49;72.21
64961;SHT31;51487;52.266;10.542;2023-04-06T00:19:58;2.42;72.59
64961;SHT31;51487;52.266;10.542;2023-04-06T00:22:24;2.42;72.39
64961;SHT31;51487;52.266;10.542;2023-04-06T00:24:49;2.35;72.49
64961;SHT31;51487;52.266;10.542;2023-04-06T00:27:15;2.38;72.33
64961;SHT31;51487;52.266;10.542;2023-04-06T00:29:40;2.38;72.41
64961;SHT31;51487;52.266;10.542;2023-04-06T00:32:06;2.35;72.49
64961;SHT31;51487;52.266;10.542;2023-04-06T00:34:31;2.28;72.55
64961;SHT31;51487;52.266;10.542;2023-04-06T00:36:57;2.43;72.47
64961;SHT31;51487;52.266;10.542;2023-04-06T00:39:22;2.39;73.20
64961;SHT31;51487;52.266;10.542;2023-04-06T00:41:51;2.35;72.50
64961;SHT31;51487;52.266;10.542;2023-04-06T00:44:17;2.34;72.48
64961;SHT31;51487;52.266;10.542;2023-04-06T00:46:42;2.28;72.81
64961;SHT31;51487;52.266;10.542;2023-04-06T00:49:08;2.31;72.71
64961;SHT31;51487;52.266;10.542;2023-04-06T00:51:33;2.18;73.04
64961;SHT31;51487;52.266;10.542;2023-04-06T00:53:59;2.13;73.24
64961;SHT31;51487;52.266;10.542;2023-04-06T00:56:24;2.07;73.39
64961;SHT31;51487;52.266;10.542;2023-04-06T00:58:51;2.10;73.35
64961;SHT31;51487;52.266;10.542;2023-04-06T01:01:17;2.14;73.26
64961;SHT31;51487;52.266;10.542;2023-04-06T01:03:42;2.24;73.86
64961;SHT31;51487;52.266;10.542;2023-04-06T01:06:09;2.20;73.25
64961;SHT31;51487;52.266;10.542;2023-04-06T01:08:35;2.20;73.27
64961;SHT31;51487;52.266;10.542;2023-04-06T01:11:01;2.15;73.50
64961;SHT31;51487;52.266;10.542;2023-04-06T01:13:27;2.10;74.01
64961;SHT31;51487;52.266;10.542;2023-04-06T01:15:53;2.08;73.68
64961;SHT31;51487;52.266;10.542;2023-04-06T01:18:18;2.07;73.66
64961;SHT31;51487;52.266;10.542;2023-04-06T01:20:44;2.08;73.76
64961;SHT31;51487;52.266;10.542;2023-04-06T01:23:09;2.00;73.88
64961;SHT31;51487;52.266;10.542;2023-04-06T01:25:35;2.00;73.71
64961;SHT31;51487;52.266;10.542;2023-04-06T01:28:00;1.98;73.93
64961;SHT31;51487;52.266;10.542;2023-04-06T01:30:26;1.91;74.40
64961;SHT31;51487;52.266;10.542;2023-04-06T01:32:51;2.00;73.96
64961;SHT31;51487;52.266;10.542;2023-04-06T01:35:18;2.01;73.83
64961;SHT31;51487;52.266;10.542;2023-04-06T01:37:44;1.95;73.94
64961;SHT31;51487;52.266;10.542;2023-04-06T01:40:10;1.84;73.99
64961;SHT31;51487;52.266;10.542;2023-04-06T01:42:36;1.84;74.05
64961;SHT31;51487;52.266;10.542;2023-04-06T01:45:02;1.83;74.55
64961;SHT31;51487;52.266;10.542;2023-04-06T01:47:27;1.88;74.71
64961;SHT31;51487;52.266;10.542;2023-04-06T01:49:53;1.87;74.00
64961;SHT31;51487;52.266;10.542;2023-04-06T01:52:18;1.83;74.05
64961;SHT31;51487;52.266;10.542;2023-04-06T01:54:44;1.80;73.88
64961;SHT31;51487;52.266;10.542;2023-04-06T01:57:10;1.84;74.04
64961;SHT31;51487;52.266;10.542;2023-04-06T01:59:36;1.85;73.59
64961;SHT31;51487;52.266;10.542;2023-04-06T02:02:01;1.81;73.79
64961;SHT31;51487;52.266;10.542;2023-04-06T02:04:26;1.81;73.61
64961;SHT31;51487;52.266;10.542;2023-04-06T02:06:52;1.87;73.52
64961;SHT31;51487;52.266;10.542;2023-04-06T02:09:17;1.87;73.50
64961;SHT31;51487;52.266;10.542;2023-04-06T02:11:43;1.81;73.99
64961;SHT31;51487;52.266;10.542;2023-04-06T02:14:08;1.85;73.72
64961;SHT31;51487;52.266;10.542;2023-04-06T02:16:33;1.88;73.47
64961;SHT31;51487;52.266;10.542;2023-04-06T02:18:59;1.80;74.15
64961;SHT31;51487;52.266;10.542;2023-04-06T02:21:24;1.76;74.62
64961;SHT31;51487;52.266;10.542;2023-04-06T02:23:50;1.70;74.17
64961;SHT31;51487;52.266;10.542;2023-04-06T02:26:15;1.70;73.90
64961;SHT31;51487;52.266;10.542;2023-04-06T02:28:41;1.71;73.86
64961;SHT31;51487;52.266;10.542;2023-04-06T02:31:07;1.63;74.31
64961;SHT31;51487;52.266;10.542;2023-04-06T02:33:32;1.64;74.38
64961;SHT31;51487;52.266;10.542;2023-04-06T02:35:58;1.60;74.42
64961;SHT31;51487;52.266;10.542;2023-04-06T02:38:23;1.60;74.50
64961;SHT31;51487;52.266;10.542;2023-04-06T02:40:48;1.57;74.68
64961;SHT31;51487;52.266;10.542;2023-04-06T02:43:14;1.63;74.41
64961;SHT31;51487;52.266;10.542;2023-04-06T02:45:41;1.64;75.13
64961;SHT31;51487;52.266;10.542;2023-04-06T02:48:06;1.67;75.32
64961;SHT31;51487;52.266;10.542;2023-04-06T02:50:32;1.56;75.66
64961;SHT31;51487;52.266;10.542;2023-04-06T02:52:57;1.54;76.02
64961;SHT31;51487;52.266;10.542;2023-04-06T02:55:23;1.52;76.22
64961;SHT31;51487;52.266;10.542;2023-04-06T02:57:48;1.52;75.44
64961;SHT31;51487;52.266;10.542;2023-04-06T03:00:14;1.54;75.59
64961;SHT31;51487;52.266;10.542;2023-04-06T03:02:39;1.50;75.90
64961;SHT31;51487;52.266;10.542;2023-04-06T03:05:05;1.47;75.25
64961;SHT31;51487;52.266;10.542;2023-04-06T03:07:30;1.45;75.26
64961;SHT31;51487;52.266;10.542;2023-04-06T03:09:56;1.46;75.79
64961;SHT31;51487;52.266;10.542;2023-04-06T03:12:21;1.42;76.03
64961;SHT31;51487;52.266;10.542;2023-04-06T03:14:46;1.47;75.56
64961;SHT31;51487;52.266;10.542;2023-04-06T03:17:12;1.47;75.54
64961;SHT31;51487;52.266;10.542;2023-04-06T03:19:37;1.46;75.92
64961;SHT31;51487;52.266;10.542;2023-04-06T03:22:03;1.42;75.81
64961;SHT31;51487;52.266;10.542;2023-04-06T03:24:28;1.39;75.95
64961;SHT31;51487;52.266;10.542;2023-04-06T03:26:54;1.40;75.84
64961;SHT31;51487;52.266;10.542;2023-04-06T03:29:20;1.38;75.86
64961;SHT31;51487;52.266;10.542;2023-04-06T03:31:45;1.43;75.95
64961;SHT31;51487;52.266;10.542;2023-04-06T03:34:10;1.32;76.27
64961;SHT31;51487;52.266;10.542;2023-04-06T03:36:36;1.36;75.95
64961;SHT31;51487;52.266;10.542;2023-04-06T03:39:01;1.25;76.48
64961;SHT31;51487;52.266;10.542;2023-04-06T03:41:26;1.18;76.98
64961;SHT31;51487;52.266;10.542;2023-04-06T03:43:52;1.19;76.47
64961;SHT31;51487;52.266;10.542;2023-04-06T03:46:18;1.21;76.58
64961;SHT31;51487;52.266;10.542;2023-04-06T03:48:43;1.14;76.67
64961;SHT31;51487;52.266;10.542;2023-04-06T03:51:08;1.15;76.97
64961;SHT31;51487;52.266;10.542;2023-04-06T03:53:34;1.15;77.20
64961;SHT31;51487;52.266;10.542;2023-04-06T03:56:02;1.08;77.34
64961;SHT31;51487;52.266;10.542;2023-04-06T03:58:27;1.02;77.60
64961;SHT31;51487;52.266;10.542;2023-04-06T04:00:53;0.98;77.79
64961;SHT31;51487;52.266;10.542;2023-04-06T04:03:18;0.91;77.90
64961;SHT31;51487;52.266;10.542;2023-04-06T04:05:43;0.88;78.13
64961;SHT31;51487;52.266;10.542;2023-04-06T04:08:09;0.84;78.39
64961;SHT31;51487;52.266;10.542;2023-04-06T04:10:34;0.78;78.20
64961;SHT31;51487;52.266;10.542;2023-04-06T04:13:00;0.80;78.19
64961;SHT31;51487;52.266;10.542;2023-04-06T04:15:25;0.83;78.41
64961;SHT31;51487;52.266;10.542;2023-04-06T04:17:50;0.81;78.58
64961;SHT31;51487;52.266;10.542;2023-04-06T04:20:16;0.84;78.25
64961;SHT31;51487;52.266;10.542;2023-04-06T04:22:41;0.85;78.47
64961;SHT31;51487;52.266;10.542;2023-04-06T04:25:07;0.87;78.53
64961;SHT31;51487;52.266;10.542;2023-04-06T04:27:33;0.84;78.62
64961;SHT31;51487;52.266;10.542;2023-04-06T04:29:58;0.81;78.27
64961;SHT31;51487;52.266;10.542;2023-04-06T04:32:24;0.85;78.47
64961;SHT31;51487;52.266;10.542;2023-04-06T04:34:52;0.85;78.33
64961;SHT31;51487;52.266;10.542;2023-04-06T04:37:18;0.77;78.48
64961;SHT31;51487;52.266;10.542;2023-04-06T04:39:44;0.68;78.75
64961;SHT31;51487;52.266;10.542;2023-04-06T04:42:10;0.74;78.91
64961;SHT31;51487;52.266;10.542;2023-04-06T04:44:36;0.71;78.76
64961;SHT31;51487;52.266;10.542;2023-04-06T04:47:01;0.73;79.06
64961;SHT31;51487;52.266;10.542;2023-04-06T04:49:26;0.80;78.79
64961;SHT31;51487;52.266;10.542;2023-04-06T04:51:52;0.91;78.29
64961;SHT31;51487;52.266;10.542;2023-04-06T04:54:18;0.95;77.95
64961;SHT31;51487;52.266;10.542;2023-04-06T04:56:44;0.98;77.89
64961;SHT31;51487;52.266;10.542;2023-04-06T04:59:10;0.99;77.78
64961;SHT31;51487;52.266;10.542;2023-04-06T05:01:35;1.06;77.48
64961;SHT31;51487;52.266;10.542;2023-04-06T05:04:00;1.08;77.95
64961;SHT31;51487;52.266;10.542;2023-04-06T05:06:26;1.06;77.40
64961;SHT31;51487;52.266;10.542;2023-04-06T05:08:51;1.04;77.19
64961;SHT31;51487;52.266;10.542;2023-04-06T05:11:17;1.02;77.18
64961;SHT31;51487;52.266;10.542;2023-04-06T05:13:42;1.16;76.67
64961;SHT31;51487;52.266;10.542;2023-04-06T05:16:08;1.19;76.50
64961;SHT31;51487;52.266;10.542;2023-04-06T05:18:33;1.15;76.45
64961;SHT31;51487;52.266;10.542;2023-04-06T05:20:59;1.22;76.33
64961;SHT31;51487;52.266;10.542;2023-04-06T05:23:24;1.26;76.29
64961;SHT31;51487;52.266;10.542;2023-04-06T05:25:50;1.40;75.92
64961;SHT31;51487;52.266;10.542;2023-04-06T05:28:16;1.39;76.38
64961;SHT31;51487;52.266;10.542;2023-04-06T05:30:42;1.39;76.41
64961;SHT31;51487;52.266;10.542;2023-04-06T05:33:09;1.45;75.79
64961;SHT31;51487;52.266;10.542;2023-04-06T05:35:35;1.36;76.22
64961;SHT31;51487;52.266;10.542;2023-04-06T05:38:00;1.40;76.09
64961;SHT31;51487;52.266;10.542;2023-04-06T05:40:25;1.42;76.32
64961;SHT31;51487;52.266;10.542;2023-04-06T05:42:51;1.53;75.55
64961;SHT31;51487;52.266;10.542;2023-04-06T05:45:17;1.63;75.55
64961;SHT31;51487;52.266;10.542;2023-04-06T05:47:44;1.66;75.48
64961;SHT31;51487;52.266;10.542;2023-04-06T05:50:10;1.68;75.61
64961;SHT31;51487;52.266;10.542;2023-04-06T05:52:36;1.76;75.38
64961;SHT31;51487;52.266;10.542;2023-04-06T05:55:02;1.77;75.06
64961;SHT31;51487;52.266;10.542;2023-04-06T05:57:27;1.85;75.00
64961;SHT31;51487;52.266;10.542;2023-04-06T05:59:53;1.84;74.70
64961;SHT31;51487;52.266;10.542;2023-04-06T06:02:18;1.94;74.81
64961;SHT31;51487;52.266;10.542;2023-04-06T06:04:44;2.08;74.65
64961;SHT31;51487;52.266;10.542;2023-04-06T06:07:09;2.15;74.33
64961;SHT31;51487;52.266;10.542;2023-04-06T06:09:35;2.25;74.22
64961;SHT31;51487;52.266;10.542;2023-04-06T06:12:00;2.29;74.00
64961;SHT31;51487;52.266;10.542;2023-04-06T06:14:26;2.45;73.78
64961;SHT31;51487;52.266;10.542;2023-04-06T06:16:53;2.55;73.60
64961;SHT31;51487;52.266;10.542;2023-04-06T06:19:19;2.55;73.50
64961;SHT31;51487;52.266;10.542;2023-04-06T06:21:44;2.67;72.94
64961;SHT31;51487;52.266;10.542;2023-04-06T06:24:10;2.79;72.51
64961;SHT31;51487;52.266;10.542;2023-04-06T06:26:35;2.79;72.46
64961;SHT31;51487;52.266;10.542;2023-04-06T06:29:02;2.92;72.64
64961;SHT31;51487;52.266;10.542;2023-04-06T06:31:28;2.99;71.81
64961;SHT31;51487;52.266;10.542;2023-04-06T06:33:53;3.11;70.65
64961;SHT31;51487;52.266;10.542;2023-04-06T06:36:19;3.28;69.98
64961;SHT31;51487;52.266;10.542;2023-04-06T06:38:44;3.45;69.30
64961;SHT31;51487;52.266;10.542;2023-04-06T06:41:11;3.62;68.10
64961;SHT31;51487;52.266;10.542;2023-04-06T06:43:36;3.72;67.11
64961;SHT31;51487;52.266;10.542;2023-04-06T06:46:03;3.92;66.73
64961;SHT31;51487;52.266;10.542;2023-04-06T06:48:28;4.03;65.91
64961;SHT31;51487;52.266;10.542;2023-04-06T06:50:54;4.11;66.12
64961;SHT31;51487;52.266;10.542;2023-04-06T06:53:20;4.25;65.95
64961;SHT31;51487;52.266;10.542;2023-04-06T06:55:45;4.37;65.50
64961;SHT31;51487;52.266;10.542;2023-04-06T06:58:11;4.41;65.14
64961;SHT31;51487;52.266;10.542;2023-04-06T07:00:37;4.50;64.84
64961;SHT31;51487;52.266;10.542;2023-04-06T07:03:02;4.57;64.21
64961;SHT31;51487;52.266;10.542;2023-04-06T07:05:28;4.64;63.65
64961;SHT31;51487;52.266;10.542;2023-04-06T07:07:54;4.75;64.15
64961;SHT31;51487;52.266;10.542;2023-04-06T07:10:20;4.86;63.27
64961;SHT31;51487;52.266;10.542;2023-04-06T07:12:45;4.97;63.23
64961;SHT31;51487;52.266;10.542;2023-04-06T07:15:11;5.10;62.88
64961;SHT31;51487;52.266;10.542;2023-04-06T07:17:36;5.12;62.90
64961;SHT31;51487;52.266;10.542;2023-04-06T07:20:02;5.15;62.75
64961;SHT31;51487;52.266;10.542;2023-04-06T07:22:27;5.33;62.28
64961;SHT31;51487;52.266;10.542;2023-04-06T07:24:53;5.39;62.40
64961;SHT31;51487;52.266;10.542;2023-04-06T07:27:18;5.40;62.50
64961;SHT31;51487;52.266;10.542;2023-04-06T07:29:44;5.51;62.37
64961;SHT31;51487;52.266;10.542;2023-04-06T07:32:10;5.52;62.44
64961;SHT31;51487;52.266;10.542;2023-04-06T07:34:35;5.57;62.35
64961;SHT31;51487;52.266;10.542;2023-04-06T07:37:00;5.67;62.20
64961;SHT31;51487;52.266;10.542;2023-04-06T07:39:28;5.75;62.43
64961;SHT31;51487;52.266;10.542;2023-04-06T07:41:53;5.78;62.94
64961;SHT31;51487;52.266;10.542;2023-04-06T07:44:18;5.88;62.98
64961;SHT31;51487;52.266;10.542;2023-04-06T07:46:44;5.94;63.28
64961;SHT31;51487;52.266;10.542;2023-04-06T07:49:09;6.05;63.19
64961;SHT31;51487;52.266;10.542;2023-04-06T07:51:37;6.15;62.82
64961;SHT31;51487;52.266;10.542;2023-04-06T07:54:03;6.19;62.65
64961;SHT31;51487;52.266;10.542;2023-04-06T07:56:28;6.26;61.93
64961;SHT31;51487;52.266;10.542;2023-04-06T07:58:55;6.36;60.71
64961;SHT31;51487;52.266;10.542;2023-04-06T08:01:24;6.50;59.93
64961;SHT31;51487;52.266;10.542;2023-04-06T08:03:50;6.54;59.85
64961;SHT31;51487;52.266;10.542;2023-04-06T08:06:16;6.57;59.72
64961;SHT31;51487;52.266;10.542;2023-04-06T08:08:42;6.63;60.01
64961;SHT31;51487;52.266;10.542;2023-04-06T08:11:07;6.77;59.33
64961;SHT31;51487;52.266;10.542;2023-04-06T08:13:34;6.84;58.28
64961;SHT31;51487;52.266;10.542;2023-04-06T08:15:59;6.91;57.65
64961;SHT31;51487;52.266;10.542;2023-04-06T08:18:25;6.94;57.90
64961;SHT31;51487;52.266;10.542;2023-04-06T08:20:51;6.95;58.43
64961;SHT31;51487;52.266;10.542;2023-04-06T08:23:16;7.05;58.09
64961;SHT31;51487;52.266;10.542;2023-04-06T08:25:42;7.20;57.74
64961;SHT31;51487;52.266;10.542;2023-04-06T08:28:08;7.22;56.98
64961;SHT31;51487;52.266;10.542;2023-04-06T08:30:34;7.26;56.66
64961;SHT31;51487;52.266;10.542;2023-04-06T08:33:00;7.39;56.37
64961;SHT31;51487;52.266;10.542;2023-04-06T08:35:26;7.47;56.54
64961;SHT31;51487;52.266;10.542;2023-04-06T08:37:52;7.62;56.26
64961;SHT31;51487;52.266;10.542;2023-04-06T08:40:17;7.66;54.99
64961;SHT31;51487;52.266;10.542;2023-04-06T08:42:52;7.73;54.78
64961;SHT31;51487;52.266;10.542;2023-04-06T08:45:17;7.81;55.23
64961;SHT31;51487;52.266;10.542;2023-04-06T08:47:49;7.93;54.91
64961;SHT31;51487;52.266;10.542;2023-04-06T08:50:16;8.04;54.53
64961;SHT31;51487;52.266;10.542;2023-04-06T08:52:46;8.11;53.27
64961;SHT31;51487;52.266;10.542;2023-04-06T08:55:12;8.18;52.99
64961;SHT31;51487;52.266;10.542;2023-04-06T08:57:37;8.29;52.35
64961;SHT31;51487;52.266;10.542;2023-04-06T09:00:04;8.32;52.75
64961;SHT31;51487;52.266;10.542;2023-04-06T09:02:33;8.44;52.18
64961;SHT31;51487;52.266;10.542;2023-04-06T09:04:59;8.55;52.16
64961;SHT31;51487;52.266;10.542;2023-04-06T09:07:26;8.60;52.01
64961;SHT31;51487;52.266;10.542;2023-04-06T09:09:52;8.70;50.90
64961;SHT31;51487;52.266;10.542;2023-04-06T09:12:28;8.67;51.75
64961;SHT31;51487;52.266;10.542;2023-04-06T09:14:54;8.80;51.55
64961;SHT31;51487;52.266;10.542;2023-04-06T09:17:25;8.81;51.98
64961;SHT31;51487;52.266;10.542;2023-04-06T09:19:51;8.86;52.50
64961;SHT31;51487;52.266;10.542;2023-04-06T09:22:17;8.93;52.36
64961;SHT31;51487;52.266;10.542;2023-04-06T09:25:01;8.99;51.69
64961;SHT31;51487;52.266;10.542;2023-04-06T09:27:31;9.07;50.41
64961;SHT31;51487;52.266;10.542;2023-04-06T09:32:32;9.04;51.81
64961;SHT31;51487;52.266;10.542;2023-04-06T09:35:08;9.10;52.07
64961;SHT31;51487;52.266;10.542;2023-04-06T09:37:34;9.24;51.46
64961;SHT31;51487;52.266;10.542;2023-04-06T09:40:04;9.30;51.62
64961;SHT31;51487;52.266;10.542;2023-04-06T09:42:30;9.30;51.51
64961;SHT31;51487;52.266;10.542;2023-04-06T09:44:55;9.41;51.45
64961;SHT31;51487;52.266;10.542;2023-04-06T09:47:22;9.58;51.38
64961;SHT31;51487;52.266;10.542;2023-04-06T09:49:50;9.63;50.94
64961;SHT31;51487;52.266;10.542;2023-04-06T09:52:16;9.59;50.34
64961;SHT31;51487;52.266;10.542;2023-04-06T09:54:43;9.61;48.98
64961;SHT31;51487;52.266;10.542;2023-04-06T09:57:18;9.72;49.14
64961;SHT31;51487;52.266;10.542;2023-04-06T10:04:56;9.83;49.59
64961;SHT31;51487;52.266;10.542;2023-04-06T10:07:25;9.71;50.48
64961;SHT31;51487;52.266;10.542;2023-04-06T10:09:53;9.81;50.27
64961;SHT31;51487;52.266;10.542;2023-04-06T10:12:19;9.93;50.09
64961;SHT31;51487;52.266;10.542;2023-04-06T10:14:45;10.03;49.31
64961;SHT31;51487;52.266;10.542;2023-04-06T10:17:11;10.10;47.76
64961;SHT31;51487;52.266;10.542;2023-04-06T10:19:55;10.07;48.26
64961;SHT31;51487;52.266;10.542;2023-04-06T10:22:49;10.23;49.56
64961;SHT31;51487;52.266;10.542;2023-04-06T10:25:32;10.30;49.58
64961;SHT31;51487;52.266;10.542;2023-04-06T10:28:02;10.32;49.83
64961;SHT31;51487;52.266;10.542;2023-04-06T10:30:30;10.33;49.15
64961;SHT31;51487;52.266;10.542;2023-04-06T10:32:56;10.32;49.08
64961;SHT31;51487;52.266;10.542;2023-04-06T10:35:22;10.27;49.55
64961;SHT31;51487;52.266;10.542;2023-04-06T10:37:50;10.44;49.54
64961;SHT31;51487;52.266;10.542;2023-04-06T10:40:21;10.89;67.82
64961;SHT31;51487;52.266;10.542;2023-04-06T10:42:47;11.97;73.58
64961;SHT31;51487;52.266;10.542;2023-04-06T10:45:23;12.38;49.64
64961;SHT31;51487;52.266;10.542;2023-04-06T10:47:50;12.53;46.62
64961;SHT31;51487;52.266;10.542;2023-04-06T10:50:17;12.59;48.73
64961;SHT31;51487;52.266;10.542;2023-04-06T10:52:46;12.81;51.40
64961;SHT31;51487;52.266;10.542;2023-04-06T10:55:15;12.86;49.63
64961;SHT31;51487;52.266;10.542;2023-04-06T10:57:41;13.06;49.03
64961;SHT31;51487;52.266;10.542;2023-04-06T11:00:07;12.50;45.03
64961;SHT31;51487;52.266;10.542;2023-04-06T11:02:34;12.18;45.39
64961;SHT31;51487;52.266;10.542;2023-04-06T11:05:01;11.92;45.45
64961;SHT31;51487;52.266;10.542;2023-04-06T11:07:27;11.64;45.71
64961;SHT31;51487;52.266;10.542;2023-04-06T11:09:54;11.49;45.82
64961;SHT31;51487;52.266;10.542;2023-04-06T11:12:23;11.36;47.58
64961;SHT31;51487;52.266;10.542;2023-04-06T11:15:00;11.24;46.04
64961;SHT31;51487;52.266;10.542;2023-04-06T11:17:35;11.22;45.57
64961;SHT31;51487;52.266;10.542;2023-04-06T11:20:01;11.19;46.24
64961;SHT31;51487;52.266;10.542;2023-04-06T11:22:28;11.29;46.23
64961;SHT31;51487;52.266;10.542;2023-04-06T11:25:04;11.41;46.00
64961;SHT31;51487;52.266;10.542;2023-04-06T11:27:30;11.33;45.20
64961;SHT31;51487;52.266;10.542;2023-04-06T11:29:58;11.29;45.45
64961;SHT31;51487;52.266;10.542;2023-04-06T11:32:23;11.33;45.48
64961;SHT31;51487;52.266;10.542;2023-04-06T11:34:49;11.41;46.18
64961;SHT31;51487;52.266;10.542;2023-04-06T11:37:15;11.49;45.16
64961;SHT31;51487;52.266;10.542;2023-04-06T11:39:47;11.51;45.21
64961;SHT31;51487;52.266;10.542;2023-04-06T11:42:21;11.60;44.67
64961;SHT31;51487;52.266;10.542;2023-04-06T11:44:50;11.63;44.24
64961;SHT31;51487;52.266;10.542;2023-04-06T11:47:16;11.64;45.73
64961;SHT31;51487;52.266;10.542;2023-04-06T11:49:43;11.69;45.61
64961;SHT31;51487;52.266;10.542;2023-04-06T11:52:16;11.80;45.82
64961;SHT31;51487;52.266;10.542;2023-04-06T11:54:42;11.88;44.75
64961;SHT31;51487;52.266;10.542;2023-04-06T11:57:08;11.92;44.56
64961;SHT31;51487;52.266;10.542;2023-04-06T11:59:34;11.71;45.00
64961;SHT31;51487;52.266;10.542;2023-04-06T12:02:03;11.77;45.58
64961;SHT31;51487;52.266;10.542;2023-04-06T12:04:29;11.82;45.29
64961;SHT31;51487;52.266;10.542;2023-04-06T12:06:55;11.71;44.97
64961;SHT31;51487;52.266;10.542;2023-04-06T12:09:20;11.82;45.45
64961;SHT31;51487;52.266;10.542;2023-04-06T12:11:46;11.92;45.13
64961;SHT31;51487;52.266;10.542;2023-04-06T12:14:12;11.90;45.29
64961;SHT31;51487;52.266;10.542;2023-04-06T12:16:38;11.91;44.91
64961;SHT31;51487;52.266;10.542;2023-04-06T12:19:03;12.01;45.42
64961;SHT31;51487;52.266;10.542;2023-04-06T12:21:33;12.05;43.56
64961;SHT31;51487;52.266;10.542;2023-04-06T12:24:00;12.14;43.69
64961;SHT31;51487;52.266;10.542;2023-04-06T12:26:27;12.25;43.19
64961;SHT31;51487;52.266;10.542;2023-04-06T12:28:53;12.32;42.41
64961;SHT31;51487;52.266;10.542;2023-04-06T12:31:19;12.28;43.05
64961;SHT31;51487;52.266;10.542;2023-04-06T12:33:52;12.24;43.01
64961;SHT31;51487;52.266;10.542;2023-04-06T12:36:19;12.29;43.17
64961;SHT31;51487;52.266;10.542;2023-04-06T12:38:48;12.35;43.53
64961;SHT31;51487;52.266;10.542;2023-04-06T12:41:14;12.22;43.18
64961;SHT31;51487;52.266;10.542;2023-04-06T12:43:42;12.29;42.50
64961;SHT31;51487;52.266;10.542;2023-04-06T12:46:08;12.30;42.19
64961;SHT31;51487;52.266;10.542;2023-04-06T12:48:33;12.21;42.94
64961;SHT31;51487;52.266;10.542;2023-04-06T12:51:04;12.29;43.08
64961;SHT31;51487;52.266;10.542;2023-04-06T12:53:31;12.39;43.26
64961;SHT31;51487;52.266;10.542;2023-04-06T12:55:57;12.45;42.55
64961;SHT31;51487;52.266;10.542;2023-04-06T12:58:24;12.45;42.90
64961;SHT31;51487;52.266;10.542;2023-04-06T13:00:52;12.53;41.50
64961;SHT31;51487;52.266;10.542;2023-04-06T13:03:19;12.60;40.65
64961;SHT31;51487;52.266;10.542;2023-04-06T13:05:46;12.64;40.02
64961;SHT31;51487;52.266;10.542;2023-04-06T13:08:12;12.57;40.34
64961;SHT31;51487;52.266;10.542;2023-04-06T13:10:37;12.61;39.72
64961;SHT31;51487;52.266;10.542;2023-04-06T13:13:03;12.56;40.53
64961;SHT31;51487;52.266;10.542;2023-04-06T13:15:29;12.53;39.15
64961;SHT31;51487;52.266;10.542;2023-04-06T13:17:55;12.57;39.41
64961;SHT31;51487;52.266;10.542;2023-04-06T13:20:20;12.55;39.77
64961;SHT31;51487;52.266;10.542;2023-04-06T13:22:45;12.53;40.10
64961;SHT31;51487;52.266;10.542;2023-04-06T13:25:11;12.52;40.58
64961;SHT31;51487;52.266;10.542;2023-04-06T13:27:36;12.55;40.39
64961;SHT31;51487;52.266;10.542;2023-04-06T13:30:03;12.61;40.85
64961;SHT31;51487;52.266;10.542;2023-04-06T13:32:28;12.75;39.85
64961;SHT31;51487;52.266;10.542;2023-04-06T13:34:55;12.77;39.53
64961;SHT31;51487;52.266;10.542;2023-04-06T13:37:21;12.83;39.54
64961;SHT31;51487;52.266;10.542;2023-04-06T13:39:46;12.80;39.62
64961;SHT31;51487;52.266;10.542;2023-04-06T13:42:12;12.81;40.11
64961;SHT31;51487;52.266;10.542;2023-04-06T13:44:37;12.72;40.17
64961;SHT31;51487;52.266;10.542;2023-04-06T13:47:03;12.83;39.06
64961;SHT31;51487;52.266;10.542;2023-04-06T13:49:28;12.86;39.26
64961;SHT31;51487;52.266;10.542;2023-04-06T13:51:54;12.88;38.89
64961;SHT31;51487;52.266;10.542;2023-04-06T13:54:19;12.93;39.59
64961;SHT31;51487;52.266;10.542;2023-04-06T13:56:45;13.01;39.45
64961;SHT31;51487;52.266;10.542;2023-04-06T13:59:10;13.04;38.16
64961;SHT31;51487;52.266;10.542;2023-04-06T14:01:36;12.98;38.35
64961;SHT31;51487;52.266;10.542;2023-04-06T14:04:02;13.00;38.67
64961;SHT31;51487;52.266;10.542;2023-04-06T14:06:28;12.97;39.52
64961;SHT31;51487;52.266;10.542;2023-04-06T14:08:53;12.97;39.04
64961;SHT31;51487;52.266;10.542;2023-04-06T14:11:18;13.00;39.07
64961;SHT31;51487;52.266;10.542;2023-04-06T14:13:44;13.03;39.46
64961;SHT31;51487;52.266;10.542;2023-04-06T14:16:09;13.07;39.29
64961;SHT31;51487;52.266;10.542;2023-04-06T14:18:36;13.08;39.41
64961;SHT31;51487;52.266;10.542;2023-04-06T14:21:02;13.00;39.61
64961;SHT31;51487;52.266;10.542;2023-04-06T14:23:28;13.08;38.69
64961;SHT31;51487;52.266;10.542;2023-04-06T14:26:11;13.12;38.31
64961;SHT31;51487;52.266;10.542;2023-04-06T14:28:37;13.08;37.51
64961;SHT31;51487;52.266;10.542;2023-04-06T14:31:10;13.06;37.68
64961;SHT31;51487;52.266;10.542;2023-04-06T14:33:36;12.96;37.76
64961;SHT31;51487;52.266;10.542;2023-04-06T14:36:03;13.01;37.80
64961;SHT31;51487;52.266;10.542;2023-04-06T14:38:28;12.98;37.33
64961;SHT31;51487;52.266;10.542;2023-04-06T14:40:54;13.01;37.76
64961;SHT31;51487;52.266;10.542;2023-04-06T14:43:21;12.88;38.53
64961;SHT31;51487;52.266;10.542;2023-04-06T14:45:46;13.00;38.48
64961;SHT31;51487;52.266;10.542;2023-04-06T14:48:12;13.11;38.96
64961;SHT31;51487;52.266;10.542;2023-04-06T14:50:38;13.14;39.35
64961;SHT31;51487;52.266;10.542;2023-04-06T14:53:04;13.24;39.05
64961;SHT31;51487;52.266;10.542;2023-04-06T14:55:30;13.25;38.93
64961;SHT31;51487;52.266;10.542;2023-04-06T14:57:56;13.28;39.00
64961;SHT31;51487;52.266;10.542;2023-04-06T15:00:21;13.29;38.94
64961;SHT31;51487;52.266;10.542;2023-04-06T15:02:46;13.29;39.43
64961;SHT31;51487;52.266;10.542;2023-04-06T15:05:12;13.28;39.48
64961;SHT31;51487;52.266;10.542;2023-04-06T15:07:37;13.18;39.00
64961;SHT31;51487;52.266;10.542;2023-04-06T15:10:04;13.22;39.05
64961;SHT31;51487;52.266;10.542;2023-04-06T15:12:30;13.22;39.73
64961;SHT31;51487;52.266;10.542;2023-04-06T15:14:55;13.38;39.99
64961;SHT31;51487;52.266;10.542;2023-04-06T15:17:21;13.41;40.05
64961;SHT31;51487;52.266;10.542;2023-04-06T15:19:46;13.45;39.54
64961;SHT31;51487;52.266;10.542;2023-04-06T15:22:12;13.49;39.61
64961;SHT31;51487;52.266;10.542;2023-04-06T15:24:37;13.54;38.92
64961;SHT31;51487;52.266;10.542;2023-04-06T15:27:03;13.59;38.88